x

9440910 - Toke Point, Wa (tokw1) Weather Station

4:30 - Fri 9th Dec 2016 All times are PST. -8 hours from GMT.

  • Wind
    10mph, 13mph gusts
  • Sea Temp 44°f
  • Luft Temp 43°f
  • Sea Pressure 1010.9mb
  • 9440910 - Toke Point, Wa
  • 9440910 - Toke Point, Wa

More Historic Weather Station data

Upgrade to MSW Pro to gain access to the past 30 days of data for over 8000 Wavebouys and Weather Stations around the globe.

Join Pro

Comparision Forecast

View Surf forecast
   
Fr 12/09 4:30 10 13 mph 1010.9mb 44f 43f
4:24 11 15 mph 1010.9mb 44f 43f
4:18 13 14 mph 1011.2mb 44f 43f
4:12 11 15 mph 1011.3mb 44f 43f
4:06 13 16 mph 1011.3mb 44f 43f
4:00 14 15 mph 1011.3mb 44f 43f
3:54 14 17 mph 1011.3mb 44f 43f
3:48 13 15 mph 1011.5mb 44f -
3:42 11 15 mph 1011.5mb 44f 44f
3:36 13 14 mph 1011.5mb 44f 44f
3:30 10 14 mph 1011.6mb 44f 44f
3:24 11 14 mph 1011.6mb 44f 44f
3:18 10 13 mph 1011.7mb 45f 44f
3:12 9 13 mph 1011.8mb 45f 44f
3:06 10 13 mph 1011.8mb 45f 44f
3:00 10 13 mph 1011.8mb 45f 44f
2:54 10 11 mph 1011.9mb 45f 44f
2:48 10 13 mph - - -
2:42 11 14 mph 1011.9mb 45f 44f
2:36 11 14 mph 1011.8mb 45f 44f
2:30 11 15 mph 1011.9mb 45f 44f
2:24 14 16 mph 1011.9mb 45f 43f
2:18 15 18 mph 1011.9mb 45f -
2:12 16 20 mph 1011.9mb 46f 44f
2:06 15 18 mph 1012.1mb 46f 44f
2:00 11 16 mph 1012.1mb 46f 44f
1:54 10 13 mph 1012.1mb 46f 44f
1:48 9 11 mph 1012.2mb 46f 44f
1:42 9 13 mph 1012.3mb 46f 44f
1:36 11 14 mph 1012.3mb 45f 44f
1:30 11 15 mph 1012.4mb 46f 44f
1:24 11 14 mph 1012.4mb 45f 44f
1:18 10 15 mph 1012.5mb 46f 44f
1:12 14 17 mph 1012.7mb 46f 43f
1:06 15 18 mph 1012.7mb 45f 43f
1:00 15 18 mph 1012.9mb 46f 43f
12:54 8 10 mph 1013.1mb 46f 44f
12:48 5 6 mph 1012.9mb 46f 44f
12:42 5 7 mph 1013mb 46f 44f
12:36 6 7 mph 1013mb 46f 44f
12:30 7 11 mph 1013.1mb 46f 44f
12:24 5 9 mph 1013.2mb 46f 44f
12:18 6 10 mph 1013.4mb 45f 43f
12:12 11 14 mph 1013.2mb 46f 43f
12:06 11 14 mph 1013.4mb 46f 44f
12:00 13 15 mph 1013.4mb 45f 44f
11:54 13 14 mph 1013.5mb 45f 43f
11:48 10 14 mph 1013.7mb 46f 44f
11:42 10 14 mph 1013.7mb 46f 44f
11:36 11 15 mph 1013.7mb 46f 44f
11:30 14 16 mph 1013.7mb 46f 44f
11:24 14 16 mph 1013.7mb 46f 44f
11:18 13 15 mph 1013.6mb 46f 44f
11:12 14 17 mph 1013.7mb 46f 44f
11:06 16 20 mph 1013.7mb 46f 44f
11:00 17 21 mph 1013.8mb 46f 44f
10:54 18 22 mph 1013.9mb 46f 44f
10:48 17 21 mph 1014.1mb 46f 44f
10:42 17 18 mph 1014.1mb 46f 44f
10:36 14 16 mph 1014.1mb 46f 43f
10:30 14 16 mph 1014.1mb 47f 43f
10:24 10 13 mph 1014.2mb 47f 44f
10:18 10 11 mph 1014.3mb 46f 44f
10:12 9 10 mph 1014.2mb 46f 43f
10:06 9 13 mph 1014.2mb 46f 43f
10:00 13 15 mph 1014.1mb 47f 43f
9:54 11 14 mph 1014.2mb 47f 43f
9:48 11 14 mph 1014.4mb 47f 42f
9:42 8 13 mph 1014.4mb 46f 43f
9:36 9 13 mph 1014.4mb 47f 43f
9:30 6 8 mph 1014.5mb 47f 42f
9:24 3 7 mph 1014.5mb 47f 43f
9:18 5 6 mph 1014.4mb 46f 43f
9:12 5 8 mph 1014.2mb 46f 43f
9:06 5 8 mph 1014.2mb 46f 43f
9:00 3 9 mph 1014.3mb 47f 43f
8:54 6 11 mph 1014.2mb 47f 42f
8:48 8 13 mph 1014.1mb 47f -
8:42 10 13 mph 1014.1mb 47f 43f
8:36 6 11 mph 1014mb 47f 42f
8:30 10 13 mph 1014mb 47f 43f
8:24 11 15 mph 1013.9mb 47f 43f
8:18 11 14 mph 1013.9mb 47f 43f
8:12 13 15 mph 1013.8mb 47f 42f
8:06 13 15 mph 1014mb 47f 43f
8:00 10 16 mph 1014.1mb 47f 42f
7:54 8 15 mph 1014.1mb 47f 42f
7:48 13 18 mph 1014.1mb 47f 42f
7:42 14 17 mph 1014.2mb 47f 42f
7:36 9 13 mph 1013.9mb 47f 42f
7:30 10 11 mph 1013.6mb 47f 42f
7:24 6 9 mph 1013.8mb 47f 43f
7:18 6 10 mph 1013.6mb 47f 43f
7:12 8 9 mph 1013.6mb 47f 43f
7:06 5 7 mph 1013.6mb 47f 43f
7:00 7 8 mph 1013.7mb 47f 43f
6:54 8 10 mph 1013.7mb 47f 43f
6:48 8 9 mph 1013.7mb 47f 43f
6:42 8 10 mph 1013.7mb 46f 43f
6:36 7 9 mph 1013.6mb 46f 43f
6:30 7 9 mph 1013.5mb 47f 43f
6:24 7 11 mph 1013.5mb 47f 42f
6:18 10 13 mph 1013.5mb 47f 42f
6:12 10 15 mph 1013.5mb 47f 42f
6:06 11 14 mph 1013.4mb 47f 42f
6:00 11 15 mph 1013.4mb 47f 42f
5:54 13 15 mph 1013.4mb 46f 42f
5:48 11 15 mph 1013.3mb 46f 42f
5:42 14 16 mph 1013.3mb 47f 42f
5:36 11 15 mph 1013.2mb 47f 42f
5:30 13 15 mph 1013.2mb 46f 42f
5:24 11 14 mph 1013.2mb 46f 42f
5:18 10 13 mph 1013.3mb 46f 42f
5:12 10 14 mph 1013.4mb 46f 42f
5:06 10 13 mph 1013.5mb 46f 42f
5:00 3 5 mph 1013.5mb 46f 41f
4:54 3 6 mph 1013.3mb 46f 41f
4:48 3 8 mph 1013.6mb 46f 41f
4:42 2 13 mph 1013.4mb 45f 41f
4:36 10 13 mph 1013mb 45f 41f
4:30 7 10 mph 1013.1mb 45f 41f
4:24 8 9 mph 1013.2mb 45f 42f
4:18 8 10 mph 1013.3mb 45f 42f
4:12 8
mph
1013.3mb 44f 42f
4:06 7 9 mph 1013.3mb 44f 41f
4:00 8 10 mph 1013.2mb 44f 41f
3:54 5 7 mph 1013.3mb 43f 40f
3:48 5 9 mph 1013.6mb 42f 40f
3:42 5
mph
1013.6mb 41f 40f
3:36 3 8 mph 1013.5mb 41f 40f
3:30 7 11 mph 1013.1mb 41f 40f
3:24 8 13 mph 1013.1mb 41f 41f
3:18 9 14 mph 1013.1mb 40f 41f
3:12 10 13 mph 1013.2mb 40f 41f
3:06 7 9 mph 1013.2mb 40f 40f
3:00 7 10 mph 1013.2mb 40f 40f
2:54 7 10 mph 1013.1mb 40f 40f
2:48 6 10 mph 1013.2mb 40f 40f
2:42 10
mph
1013mb 40f 40f
2:36 10 14 mph 1012.9mb 40f 40f
2:30 9 10 mph 1012.8mb 40f 40f
2:24 8 11 mph 1012.8mb 40f 40f
2:18 8 11 mph 1012.8mb 40f -
2:12 9 13 mph 1012.7mb 40f 40f
2:06 8 9 mph 1012.7mb 40f 39f
2:00 8 11 mph 1012.7mb 40f 39f
1:54 9 11 mph 1012.7mb 40f 39f
1:48 8 13 mph 1012.8mb 40f 38f
1:42 11 16 mph 1012.5mb 40f 38f
1:36 13 16 mph 1012.4mb 40f 39f
1:30 13 15 mph 1012.4mb 40f 39f
1:24 11 14 mph 1012.4mb 40f 39f
1:18 9 15 mph 1012.6mb 40f 38f
1:12 13 16 mph 1012.4mb 40f 39f
1:06 11 14 mph 1012.4mb 40f 38f
1:00 11 14 mph 1012.3mb 40f 38f
12:54 11 14 mph 1012.2mb 40f 38f
12:48 10 11 mph 1012.1mb 40f 37f
12:42 10 11 mph 1012.2mb 40f 37f
12:36 10 11 mph 1012.1mb 40f 37f
12:30 10 13 mph 1012mb 40f 38f
12:24 11 15 mph 1011.9mb 40f 38f
12:18 14 15 mph 1011.7mb 40f 38f
12:12 10 17 mph 1011.9mb 40f 38f
12:06 14 18 mph 1011.8mb 40f 38f
12:00 14 16 mph 1011.9mb 40f 39f
Do 12/08 11:54 10 13 mph 1011.9mb 40f 38f
11:48 11
mph
1011.8mb 40f 38f
11:42 7 9 mph 1012.1mb 40f 38f
11:36 2 13 mph 1012.4mb 40f 38f
11:30 11 14 mph 1011.6mb 40f 38f
11:24 13 20 mph 1011.4mb 40f 38f
11:18 14 18 mph 1011.5mb 40f 38f
11:12 16 18 mph 1011.4mb 40f 37f
11:06 10 18 mph 1011.6mb 41f 37f
11:00 18 22 mph 1011.1mb 41f 37f
10:54 20 22 mph 1010.9mb 41f 37f
10:48 17 21 mph 1010.9mb 41f 37f
10:42 20 23 mph 1010.8mb 41f 37f
10:36 15 18 mph 1010.8mb 41f 37f
10:30 18 23 mph 1010.8mb 41f 37f
10:24 21 23 mph 1010.6mb 41f 37f
10:18 20 22 mph 1010.6mb 41f 37f
10:12 20 25 mph 1010.5mb 41f 36f
10:06 22 24 mph 1010.4mb 42f 36f
10:00 22 25 mph 1010.4mb 41f 36f
9:54 21 25 mph 1010.4mb 41f 36f
9:48 20 25 mph 1010.4mb 41f 36f
9:42 22 28 mph 1010.3mb - -
9:36 22 26 mph 1010.1mb - -
9:30 23 25 mph 1010.1mb 41f 36f
9:24 22 25 mph 1010.1mb 42f 36f
9:18 22 26 mph 1009.9mb 42f -
9:12 22 26 mph 1009.9mb 41f 36f
9:06 23 28 mph 1009.8mb 42f 36f
9:00 22 28 mph 1009.9mb 42f 36f
8:54 21 26 mph 1009.8mb 42f 37f
8:48 23 29 mph 1009.7mb 42f -
8:42 25 29 mph 1009.6mb 43f 36f
8:36 22 26 mph 1009.5mb 43f 36f
8:30 21 28 mph 1009.4mb 43f 36f
8:24 22 24 mph 1009.4mb 43f 36f
8:18 22 25 mph 1009.4mb 43f 35f
8:12 22 26 mph 1009.4mb 44f 36f
8:06 21 26 mph 1009.4mb 46f 36f
8:00 23 28 mph 1009.4mb 46f 35f
7:54 23 26 mph 1009.2mb 46f 35f
7:48 23 26 mph 1009.3mb 45f 36f
7:42 24 29 mph 1009.3mb 47f 36f
7:36 22 29 mph 1009.2mb 47f 36f
7:30 22 28 mph 1009.3mb 47f 36f
7:24 24 28 mph 1009.2mb 47f 36f
7:18 23 26 mph 1009.2mb 47f -
7:12 21 28 mph 1009.3mb 47f 35f
7:06 24 28 mph 1009.3mb 47f 35f
7:00 21 25 mph 1009.5mb 47f 36f
6:54 22 28 mph 1009.6mb 47f 35f
6:48 23 28 mph 1009.4mb 46f 35f
6:42 25 30 mph 1009.2mb 46f 35f
6:36 24 30 mph 1009.3mb 46f 35f
6:30 24 28 mph 1009.4mb 46f 35f
6:24 24 28 mph 1009.4mb 46f 35f
6:18 25 30 mph 1009.3mb 46f 34f
6:12 24 32 mph 1009.2mb 46f 34f
6:06 25 29 mph 1009.1mb 45f 34f
6:00 24 28 mph 1009.2mb 45f 34f
5:54 24 30 mph 1009.2mb 44f 34f
5:48 26 30 mph 1009.1mb 45f 33f
5:42 24 28 mph 1009.2mb 44f 33f
5:36 24 29 mph 1009.3mb 41f 33f
5:30 24 30 mph 1009.3mb 41f 33f
5:24 22 28 mph 1009.2mb 40f 33f
5:18 23 28 mph 1009.4mb 40f -
5:12 23 25 mph 1009.4mb 40f 33f
5:06 22 30 mph 1009.5mb 40f 32f
5:00 25 29 mph 1009.5mb 40f 33f
4:54 24 29 mph 1009.6mb 40f 33f
4:48 25 29 mph 1009.7mb 40f 33f
4:42 23 26 mph 1009.7mb 40f 34f
4:36 21 24 mph 1009.9mb 40f 34f
4:30 22 28 mph 1009.9mb 40f 34f
4:24 22 26 mph 1009.9mb 40f 34f
4:18 23 28 mph 1009.9mb 40f -
4:12 23 28 mph 1010mb 40f 34f
4:06 22 37 mph 1010mb 40f 34f
4:00 25 31 mph 1009.8mb 40f 33f
3:54 25 31 mph 1009.6mb 40f 34f
3:48 26 31 mph 1009.7mb 40f -
3:42 25 30 mph 1009.7mb 40f 33f
3:36 26 30 mph 1009.8mb 40f 33f
3:30 24 29 mph 1009.9mb 40f 33f
3:24 25 30 mph 1010mb 40f 32f
3:18 25 28 mph 1010.2mb 40f -
3:12 24 29 mph 1010.5mb 40f 32f
3:06 23 30 mph 1010.6mb 40f 32f
3:00 22 25 mph 1010.7mb 40f 33f
2:54 23 29 mph 1010.8mb 40f 32f
2:48 23 29 mph 1010.8mb 40f -
2:42 23 28 mph 1010.9mb 40f 32f
2:36 22 26 mph 1010.9mb 40f 32f
2:30 23 26 mph 1010.9mb 40f 32f
2:24 25 32 mph 1010.9mb 40f 32f
2:18 29 37 mph 1010.8mb 40f 32f
2:12 25 33 mph 1011mb 41f 32f
2:06 28 36 mph 1011.2mb 41f 32f
2:00 30 36 mph 1011.2mb 41f 32f
1:54 31 37 mph 1011.1mb 41f 33f
1:48 34 39 mph 1010.9mb 41f -
1:42 26 34 mph 1010.8mb 41f 38f
1:36 28 34 mph 1010.7mb 41f 39f
1:30 23 28 mph 1010.7mb 41f 39f
1:24 26 31 mph 1010.7mb 41f 39f
1:18 23 31 mph 1010.7mb 40f 39f
1:12 25 32 mph 1010.8mb 40f 39f
1:06 22 29 mph 1011.1mb 41f 39f
1:00 24 32 mph 1011.1mb 41f 39f
12:54 25 31 mph 1011.2mb 41f 39f
12:48 25 30 mph 1011.1mb 41f 39f
12:42 26 30 mph 1011.1mb 41f 39f
12:36 25 30 mph 1011.2mb 41f 39f
12:30 23 29 mph 1011.1mb 41f 39f
12:24 26 31 mph 1011.2mb 42f 39f
12:18 26 31 mph 1011.1mb 42f -
12:12 26 33 mph 1011.2mb 42f 38f
12:06 26 31 mph 1011.2mb 42f 38f
12:00 26 33 mph 1011.3mb 42f 38f
11:54 28 34 mph 1011.4mb 43f 38f
11:48 25 31 mph 1011.6mb 43f -
11:42 26 33 mph 1011.8mb 43f 38f
11:36 24 31 mph 1011.9mb 43f 38f
11:30 26 31 mph 1012.1mb 43f 38f
11:24 24 29 mph 1012.3mb 43f 38f
11:18 24 29 mph 1012.5mb 43f 38f
11:12 23 28 mph 1012.6mb 43f 38f
11:06 23 30 mph 1012.6mb 44f 37f
11:00 24 30 mph 1012.5mb 44f 38f
10:54 25 30 mph 1012.7mb 43f 37f
10:48 25 29 mph 1012.9mb 44f 37f
10:42 25 32 mph 1013.1mb 44f 37f
10:36 24 30 mph 1013.2mb 44f 37f
10:30 25 30 mph 1013.4mb 44f 37f
10:24 25 30 mph 1013.4mb 44f 37f
10:18 25 32 mph 1013.6mb 44f 37f
10:12 26 31 mph 1013.6mb 44f 36f
10:06 29 32 mph 1013.6mb 45f 37f
10:00 25 31 mph 1013.8mb 45f 37f
9:54 23 31 mph 1013.9mb 44f 37f
9:48 23 29 mph 1014mb 45f -
9:42 22 28 mph 1013.8mb 45f 37f
9:36 21 28 mph 1013.8mb 46f 36f
9:30 25 30 mph 1013.4mb 46f 36f
9:24 28 32 mph 1013.3mb 46f 36f
9:18 28 32 mph 1013.3mb 46f 36f
9:12 25 30 mph 1013.6mb 46f 36f
9:06 24 31 mph 1013.8mb 46f 36f
9:00 26 32 mph 1013.8mb 46f 36f
8:54 26 33 mph 1014mb 46f 36f
8:48 25 32 mph 1014mb 47f 36f
8:42 25 31 mph 1014.1mb 46f 36f
8:36 25 31 mph 1014.3mb 47f 35f
8:30 26 31 mph 1014.3mb 47f 35f
8:24 28 32 mph 1014.4mb 47f 35f
8:18 26 32 mph 1014.4mb 48f 35f
8:12 25 29 mph 1014.6mb 48f 35f
8:06 24 28 mph 1014.8mb 48f 36f
8:00 23 29 mph 1014.9mb 48f 35f
7:54 25 29 mph 1015mb 48f 35f
7:48 24 29 mph 1014.9mb 48f 35f
7:42 25 31 mph 1014.9mb 48f 35f
7:36 25 30 mph 1014.9mb 48f 35f
7:30 25 30 mph 1014.9mb 48f 35f
7:24 23 31 mph 1015mb 49f 35f
7:18 25 29 mph 1015mb 49f 34f
7:12 25 31 mph 1015.2mb 48f 35f
7:06 24 29 mph 1015.2mb 48f 35f
7:00 24 29 mph 1015.2mb 48f 35f
6:54 23 31 mph 1015.3mb 48f 35f
6:48 24 29 mph - - -
6:42 24 30 mph 1015.4mb 48f 34f
6:36 24 29 mph 1015.5mb 48f 35f
6:30 24 30 mph 1015.7mb 48f 34f
6:24 25 29 mph 1015.9mb 48f 34f
6:18 26 31 mph 1016.1mb 48f -
6:12 24 29 mph 1016.1mb 48f 35f
6:06 22 29 mph 1016.1mb 48f 35f
6:00 24 29 mph 1016.1mb 48f 35f
5:54 22 29 mph 1016mb 48f 35f
5:48 18 25 mph 1016.1mb 48f 34f
5:42 21 25 mph 1016mb 48f 34f
5:36 20 24 mph 1015.8mb 47f 34f
5:30 22 25 mph 1015.8mb 48f 34f
5:24 23 26 mph 1016mb 48f 34f
5:18 20 25 mph 1016.2mb 48f 34f
5:12 21 25 mph 1016.1mb 48f 35f
5:06 21 23 mph 1016.2mb 48f 34f
5:00 20 23 mph 1016.3mb 48f 34f
4:54 18 22 mph 1016.5mb 48f 34f
4:48 18 23 mph 1016.5mb 48f 34f
4:42 21 23 mph 1016.5mb 48f 34f
4:36 18 25 mph 1016.7mb 48f 34f
4:30 20 23 mph 1016.7mb 47f 34f
4:24 20 25 mph 1016.8mb 47f 34f
4:18 22 26 mph 1016.8mb 47f 34f
4:12 21 25 mph 1017mb 47f 34f
4:06 21 29 mph 1017mb 46f 34f
4:00 22 24 mph 1017.2mb 45f 34f
3:54 20 23 mph 1017.4mb 45f 34f
3:48 18 23 mph 1017.6mb - -
3:42 18 22 mph 1017.9mb 42f 34f
3:36 20 23 mph 1018.1mb 40f 34f
3:30 18 22 mph 1018.2mb 39f 34f
3:24 20 23 mph 1018.3mb 39f 34f
3:18 17 23 mph 1018.4mb 39f 34f
3:12 20 25 mph 1018.5mb 39f 34f
3:06 20 25 mph 1018.6mb 39f 34f
3:00 21 23 mph 1018.7mb 39f 34f
2:54 17 22 mph 1018.8mb 39f 34f
2:48 18 23 mph 1018.9mb 39f -
2:42 20 22 mph 1018.9mb 38f 34f
2:36 17 21 mph 1019.1mb 38f 34f
2:30 18 23 mph 1019.3mb 38f 34f
2:24 20 22 mph 1019.4mb 38f 34f
2:18 18 22 mph 1019.6mb 38f 34f
2:12 20 22 mph 1019.7mb 38f 34f
2:06 18 21 mph 1019.8mb 38f 34f
2:00 18 23 mph 1019.8mb 38f 34f
1:54 20 22 mph 1019.8mb 38f 34f
1:48 21 23 mph 1019.9mb 38f -
1:42 18 22 mph 1020.1mb 38f 34f
1:36 18 21 mph 1020.1mb 38f 34f
1:30 18 22 mph 1020.1mb 38f 34f
1:24 17 22 mph 1020.1mb 39f 34f
1:18 18 22 mph 1020.1mb 39f 34f
1:12 18 24 mph 1020.1mb 39f 34f
1:06 18 24 mph 1020.1mb 39f 34f
1:00 20 23 mph 1020.1mb 39f 34f
12:54 21 24 mph 1020.2mb 39f 34f
12:48 23 26 mph 1020.2mb 39f -
12:42 23 26 mph 1020.2mb 39f 34f
12:36 21 25 mph 1020.4mb 39f 34f
12:30 22 24 mph 1020.5mb 39f 34f
12:24 22 26 mph 1020.5mb 39f 34f
12:18 22 25 mph 1020.6mb 39f 34f
12:12 22 26 mph 1020.7mb 39f 34f
12:06 22 26 mph 1020.8mb 39f 34f
12:00 22 25 mph 1020.9mb 39f 35f
Mi 12/07 11:54 22 26 mph 1020.9mb 40f 34f
11:48 21 24 mph 1021mb 40f -
11:42 21 25 mph 1021.1mb 40f 34f
11:36 21 24 mph 1021.1mb 40f 34f
11:30 22 24 mph 1021.2mb 40f 35f
11:24 21 26 mph 1021.3mb 40f 35f
11:18 22 24 mph 1021.4mb 40f 34f
11:12 21 25 mph 1021.4mb 40f 35f
11:06 22 25 mph 1021.4mb 41f 35f
11:00 22 25 mph 1021.3mb 41f 35f
10:54 20 24 mph 1021.5mb 41f 35f
10:48 22 24 mph 1021.5mb 41f -
10:42 21 25 mph 1021.5mb 42f -
10:36 21 26 mph 1021.5mb 42f -
10:30 22 26 mph 1021.4mb 42f 35f
10:24 23 30 mph 1021.4mb 42f 35f
10:18 24 28 mph 1021.4mb 42f 35f
10:12 24 29 mph 1021.5mb 42f 36f
10:06 24 28 mph 1021.6mb 42f 35f
10:00 23 29 mph 1021.7mb 42f 35f
9:54 23 28 mph 1021.7mb 42f 35f
9:48 22 28 mph 1021.9mb - -
9:42 22 25 mph 1022mb 42f -
9:36 20 25 mph 1022.2mb 42f -
9:30 21 24 mph 1022.3mb 43f 35f
9:24 21 26 mph 1022.4mb 43f 36f
9:18 20 25 mph 1022.4mb 43f 36f
9:12 22 25 mph 1022.5mb 43f 35f
9:06 23 28 mph 1022.4mb 43f 35f
9:00 22 28 mph 1022.3mb 43f 35f
8:54 22 28 mph 1022.4mb 43f 36f
8:48 25 30 mph 1022.4mb 43f 35f
8:42 23 29 mph 1022.4mb 43f 36f
8:36 22 26 mph 1022.5mb 43f 35f
8:30 24 30 mph 1022.5mb 44f 35f
8:24 23 29 mph 1022.7mb 44f 35f
8:18 23 25 mph 1022.7mb 44f 35f
8:12 23 28 mph 1022.7mb 44f 36f
8:06 23 25 mph 1022.7mb 44f 36f
8:00 23 26 mph 1022.8mb 44f 35f
7:54 23 25 mph 1023mb 44f 35f
7:48 21 24 mph 1023.1mb 44f 36f
7:42 21 25 mph 1023.2mb 44f 36f
7:36 22 25 mph 1023.3mb 44f 36f
7:30 21 24 mph 1023.4mb 44f 36f
7:24 22 25 mph 1023.4mb 44f 35f
7:18 21 25 mph 1023.4mb 45f -
7:12 22 26 mph 1023.4mb 44f 36f
7:06 22 24 mph 1023.4mb 45f 35f
7:00 21 24 mph 1023.3mb 45f 35f
6:54 22 26 mph 1023.3mb 45f 36f
6:48 23 28 mph 1023.4mb 45f 36f
6:42 21 26 mph 1023.5mb 45f 36f
6:36 23 26 mph 1023.7mb 45f 36f
6:30 23 28 mph 1023.7mb 45f 36f
6:24 23 26 mph 1023.8mb 45f 36f
6:18 22 26 mph 1023.9mb 46f 36f
6:12 21 25 mph 1024mb 48f 36f
6:06 20 23 mph 1024.1mb 49f 36f
6:00 18 24 mph 1024.1mb 49f 37f
5:54 18 24 mph 1024.2mb 49f 37f
5:48 20 22 mph 1024.2mb 49f 37f
5:42 20 24 mph 1024.2mb 49f 36f
5:36 20 23 mph 1024.3mb 49f 37f
5:30 17 21 mph 1024.4mb 49f 36f
5:24 18 24 mph 1024.5mb 49f 37f
5:18 21 25 mph 1024.5mb 49f 37f
5:12 21 28 mph 1024.5mb 49f 37f
5:06 21 25 mph 1024.6mb 49f 37f
5:00 22 26 mph 1024.6mb 49f 38f
4:54 22 28 mph 1024.6mb 49f 38f
4:48 21 26 mph 1024.7mb 48f -
4:42 21 25 mph 1024.9mb 48f 38f
4:36 21 24 mph 1024.9mb 48f 38f
4:30 22 24 mph 1024.9mb 48f 38f
4:24 20 26 mph 1025mb 47f 38f
4:18 22 24 mph 1025.1mb 47f 38f
4:12 22 26 mph 1025.2mb 47f 38f
4:06 22 26 mph 1025.2mb 46f 38f
4:00 22 28 mph 1025.2mb 46f 38f
3:54 25 29 mph 1025.1mb 46f 38f
3:48 22 26 mph 1025.2mb 45f -
3:42 21 23 mph 1025.3mb 43f 38f
3:36 20 24 mph 1025.5mb 43f 38f
3:30 20 24 mph 1025.6mb 43f 38f
3:24 20 24 mph 1025.7mb 43f 38f
3:18 21 25 mph 1025.7mb 43f -
3:12 20 24 mph 1025.8mb 43f 38f
3:06 22 26 mph 1025.9mb 43f 38f
3:00 21 26 mph 1025.9mb 43f 38f
2:54 20 29 mph 1025.9mb 43f 38f
2:48 16 25 mph 1026.1mb 43f 39f
2:42 18 25 mph 1026.1mb 43f 38f
2:36 22 24 mph 1026.1mb 42f 38f
2:30 21 26 mph 1026.1mb 42f 38f
2:24 24 29 mph 1026.1mb 42f 38f
2:18 22 26 mph 1026.1mb 42f -
2:12 22 26 mph 1026.2mb 42f 38f
2:06 22 28 mph 1026.2mb 42f 38f
2:00 20 24 mph 1026.3mb 42f 38f
1:54 21 24 mph 1026.4mb 42f 38f
1:48 22 28 mph 1026.3mb 42f -
1:42 22 26 mph 1026.4mb 42f 38f
1:36 21 26 mph 1026.4mb 42f 38f
1:30 23 26 mph 1026.4mb 42f 37f
1:24 22 26 mph 1026.5mb 42f 37f
1:18 21 26 mph 1026.6mb 42f 37f
1:12 22 25 mph 1026.7mb 42f 37f
1:06 21 25 mph 1026.8mb 42f 37f
1:00 23 28 mph 1026.8mb 42f 37f
12:54 21 25 mph 1026.9mb 42f 37f
12:48 20 24 mph 1026.9mb 42f -
12:42 18 26 mph 1027.1mb 42f 37f
12:36 20 25 mph 1027.2mb 42f 36f
12:30 22 26 mph 1027.2mb 42f 37f
12:24 22 26 mph 1027.2mb 43f 37f
12:18 23 28 mph 1027.3mb 43f -
12:12 21 28 mph 1027.5mb 43f 37f
12:06 23 28 mph 1027.5mb 43f 36f
12:00 22 25 mph 1027.7mb 43f 36f
11:54 20 23 mph 1027.9mb 43f 36f
11:48 21 24 mph 1028mb 44f -
11:42 21 23 mph 1028.1mb 44f 36f
11:36 18 23 mph 1028.2mb 44f 36f
11:30 20 23 mph 1028.2mb 44f 35f
11:24 20 22 mph 1028.3mb 45f 35f
11:18 21 23 mph 1028.4mb 45f 35f
11:12 20 24 mph 1028.4mb 45f 35f
11:06 21 24 mph 1028.5mb 45f 35f
11:00 21 26 mph 1028.5mb 46f 35f
10:54 22 25 mph 1028.5mb 45f 35f
10:48 21 25 mph 1028.6mb 46f 35f
10:42 22 28 mph 1028.7mb 46f 35f
10:36 23 29 mph 1028.6mb 45f 35f
10:30 24 29 mph 1028.5mb 46f 35f
10:24 24 29 mph 1028.5mb 46f 35f
10:18 24 30 mph 1028.6mb 46f 35f
10:12 25 29 mph 1028.7mb 46f 34f
10:06 23 29 mph 1028.8mb 46f 34f
10:00 22 29 mph 1028.9mb 46f 34f
9:54 21 26 mph 1028.9mb 45f 35f
9:48 22 24 mph 1028.8mb 45f 34f
9:42 21 26 mph 1028.8mb 45f 34f
9:36 18 23 mph 1028.8mb 45f 34f
9:30 18 22 mph 1028.7mb 46f 34f
9:24 20 23 mph 1028.7mb 47f 34f
9:18 17 21 mph 1028.7mb 48f 34f
9:12 17 21 mph 1028.7mb 47f 34f
9:06 16 20 mph 1028.7mb 48f 34f
9:00 17 22 mph 1028.7mb 47f 34f
8:54 17 21 mph 1028.7mb 48f 34f
8:48 17 21 mph 1028.7mb 47f 34f
8:42 16 20 mph 1028.7mb 48f 34f
8:36 17 21 mph 1028.7mb 48f 34f
8:30 16 21 mph 1028.8mb 47f 33f
8:24 16 18 mph 1028.7mb 48f 33f
8:18 16 18 mph 1028.8mb 48f 33f
8:12 16 18 mph 1028.8mb 48f 33f
8:06 13 17 mph 1028.9mb 48f 34f
8:00 15 17 mph 1028.9mb 48f 33f
7:54 14 17 mph 1028.9mb 48f 33f
7:48 14 17 mph 1028.8mb 50f -
7:42 14 18 mph 1028.8mb 50f 34f
7:36 16 20 mph 1028.7mb 50f 34f
7:30 16 20 mph 1028.6mb 50f 34f
7:24 17 20 mph 1028.5mb 50f 34f
7:18 17 20 mph 1028.5mb 50f -
7:12 17 20 mph 1028.6mb 50f 34f
7:06 16 18 mph 1028.6mb 50f 34f
7:00 15 17 mph 1028.7mb 50f 34f
6:54 15 17 mph 1028.7mb 50f 34f
6:48 13 15 mph 1028.7mb 50f 34f
6:42 10 14 mph 1028.8mb 50f 34f
6:36 10 14 mph 1028.8mb 50f 34f
6:30 10 13 mph 1028.8mb 50f 34f
6:24 10 13 mph 1028.8mb 50f 34f
6:18 10 14 mph 1028.9mb 50f -
6:12 10 13 mph 1028.9mb 50f 34f
6:06 10 14 mph 1028.8mb 50f 34f
6:00 10 13 mph 1028.8mb 50f 34f
5:54 11 14 mph 1028.8mb 50f 34f
5:48 10 13 mph 1028.8mb 50f 34f
5:42 10 14 mph 1028.8mb 50f 34f
5:36 11 15 mph 1028.7mb 50f 34f
5:30 11 14 mph 1028.7mb 50f 34f
5:24 11 13 mph 1028.6mb 50f 34f
5:18 10 13 mph 1028.7mb 50f 34f
5:12 9 11 mph 1028.7mb 50f 34f
5:06 10 13 mph 1028.7mb 50f 34f
5:00 11 13 mph 1028.7mb 50f 34f
4:54 9 11 mph 1028.8mb 50f 34f
4:48 9 11 mph 1028.8mb 50f 34f
4:42 9 11 mph 1028.8mb 50f 34f
4:36 9 11 mph 1028.6mb 50f 34f
4:30 10 13 mph 1028.5mb 50f 34f
4:24 10 13 mph 1028.5mb 50f 35f
4:18 10 13 mph 1028.5mb 50f 34f
4:12 9 10 mph 1028.5mb 50f 35f
4:06 9 10 mph 1028.5mb 50f 35f
4:00 9 11 mph 1028.5mb 50f 34f
3:54 8 10 mph 1028.6mb 50f 35f
3:48 8 10 mph 1028.6mb 50f -
3:42 9 10 mph 1028.6mb 49f 35f
3:36 7 8 mph 1028.7mb 49f 35f
3:30 7 8 mph 1028.7mb 49f 35f
3:24 6 8 mph 1028.8mb 49f 35f
3:18 6 8 mph 1028.8mb 49f 35f
3:12 7 8 mph 1028.8mb 49f 35f
3:06 5 7 mph 1028.9mb 48f 35f
3:00 6 7 mph 1028.9mb 48f 35f
2:54 6 7 mph 1028.9mb 47f 35f
2:48 5 8 mph 1028.9mb 47f -
2:42 6 8 mph 1028.9mb 46f 35f
2:36 6 7 mph 1028.9mb 46f 35f
2:30 6 7 mph 1028.8mb 46f 34f
2:24 6 7 mph 1028.8mb 46f 34f
2:18 6 8 mph 1028.8mb 45f 35f
2:12 6 7 mph 1028.7mb 44f 35f
2:06 6 9 mph 1028.7mb 44f 35f
2:00 6 9 mph 1028.6mb 44f 35f
1:54 8 14 mph 1028.6mb 44f 35f
1:48 10 13 mph 1028.5mb 44f 35f
1:42 10 13 mph 1028.4mb 44f 35f
1:36 11 14 mph 1028.4mb 44f 35f
1:30 9 11 mph 1028.4mb 44f 36f
1:24 10 14 mph 1028.4mb 44f 36f
1:18 10 11 mph 1028.4mb 44f 36f
1:12 9 11 mph 1028.3mb 44f 36f
1:06 10 13 mph 1028.3mb 44f 36f
1:00 9 11 mph 1028.1mb 44f 36f
12:54 7 8 mph 1028.1mb 44f 35f
12:48 7 11 mph 1028mb 44f -
12:42 9 11 mph 1028mb 45f 36f
12:36 10 13 mph 1028mb 44f 35f
12:30 9 11 mph 1027.9mb 45f 35f
12:24 8 10 mph 1027.9mb 45f 35f
12:18 8 10 mph 1027.8mb 45f 35f
12:12 9 11 mph 1027.8mb 45f 35f
12:06 8 10 mph 1027.9mb 45f 35f
12:00 9 11 mph 1027.9mb 45f 35f
Di 12/06 11:54 9 11 mph 1027.8mb 45f 35f
11:48 10 13 mph 1027.6mb 45f 35f
11:42 11 13 mph 1027.6mb 45f 36f
11:36 9 11 mph 1027.5mb 45f 36f
11:30 10 14 mph 1027.5mb 45f 36f
11:24 11 14 mph 1027.4mb 45f 36f
11:18 11 13 mph 1027.3mb 45f 36f
11:12 11 13 mph 1027.3mb 45f 36f
11:06 9 11 mph 1027.4mb 45f 37f
11:00 9 10 mph 1027.5mb 45f 37f
10:54 7 10 mph 1027.5mb 45f 37f
10:48 9 11 mph 1027.4mb 45f 36f
10:42 9 10 mph 1027.3mb 46f 36f
10:36 8 10 mph 1027.3mb 46f 37f
10:30 8 10 mph 1027.2mb 46f 37f
10:24 9 10 mph 1027.1mb 46f 37f
10:18 8 10 mph 1027mb 46f 37f
10:12 9 11 mph 1027mb 46f 37f
10:06 9 10 mph 1027mb 46f 37f
10:00 8 9 mph 1027mb 46f 37f
9:54 8 11 mph 1027mb 46f 37f
9:48 9 10 mph 1026.9mb 46f 37f
9:42 9 11 mph 1026.8mb 46f 37f
9:36 8 11 mph 1026.7mb 46f 37f
9:30 8 11 mph 1026.7mb 46f 37f
9:24 9 13 mph 1026.6mb 46f 37f
9:18 10 11 mph 1026.6mb 46f 37f
9:12 8 10 mph 1026.5mb 46f 38f
9:06 8 10 mph 1026.5mb 46f 38f
9:00 8 10 mph 1026.5mb 46f 38f
8:54 8 11 mph 1026.4mb 46f 38f
8:48 8 11 mph 1026.4mb 46f 38f
8:42 7 9 mph 1026.3mb 46f 38f
8:36 3 7 mph 1026.3mb 45f 38f
8:30 6 7 mph 1026.2mb 46f 37f
8:24 5 6 mph 1026.2mb 46f 37f
8:18 5 7 mph 1026.1mb 46f 37f
8:12 5 7 mph 1026.1mb 45f 37f
8:06 6 7 mph 1026mb 46f 37f
8:00 6 8 mph 1026mb 46f 38f
7:54 7 8 mph 1025.8mb 46f 38f
7:48 7 8 mph 1025.7mb 47f 38f
7:42 7 9 mph 1025.7mb 47f 38f
7:36 7 9 mph 1025.6mb 46f 38f
7:30 7 8 mph 1025.6mb 47f 38f
7:24 7 9 mph 1025.6mb 47f 38f
7:18 7 8 mph 1025.6mb - -
7:12 7 9 mph 1025.6mb 47f 38f
7:06 7 8 mph 1025.5mb 46f 38f
7:00 7 9 mph 1025.5mb 46f 38f
6:54 7 8 mph 1025.4mb 47f 38f
6:48 7 9 mph 1025.4mb 46f 38f
6:30 5 6 mph 1025.2mb 49f 38f
6:24 5 6 mph 1025.1mb 51f 39f
6:18 5 6 mph 1025.1mb 51f 39f
6:12 5 6 mph 1025.1mb 51f 38f
6:06 6
mph
1025.1mb 51f 38f
6:00 2 3 mph 1025mb 51f 38f
5:54 3 6 mph 1025mb 51f 38f
5:48 6 7 mph 1025mb 51f -
4:54 7 8 mph 1024.5mb 51f 39f
4:48 7
mph
1024.4mb 51f 39f
4:30 6 8 mph 1024.3mb 51f 40f
4:24 7 8 mph 1024.3mb 51f 40f
4:18 5 7 mph 1024.3mb 51f 41f
4:12 6 8 mph 1024.2mb 51f 41f
4:06 7 10 mph 1024.2mb 51f 42f
4:00 8 10 mph 1024.1mb 51f 42f
3:54 8 9 mph 1024.1mb 51f 41f
3:48 5 6 mph 1024.1mb 51f 42f
3:42 6 7 mph 1024mb 51f 42f
3:36 6 8 mph 1023.9mb 51f 42f
3:30 7 9 mph 1023.9mb 50f 42f
3:24 6 8 mph 1023.8mb 50f 42f
3:18 5 8 mph 1023.7mb 50f 42f
3:12 5 8 mph 1023.6mb 50f 42f
3:06 6 7 mph 1023.5mb 50f 42f
3:00 3 7 mph 1023.4mb 50f 42f
2:54 5 6 mph 1023.4mb 50f 42f
2:48 5 6 mph 1023.3mb 50f -
2:42 6 7 mph 1023.1mb 50f 42f
2:36 3 8 mph 1023.1mb 50f 42f
2:30 7 9 mph 1023mb 50f 41f
2:24 6 10 mph 1022.9mb 49f 41f
2:18 7 10 mph 1022.7mb 49f 41f
2:12 8 11 mph 1022.6mb 49f 41f
2:06 9 11 mph 1022.6mb 49f 41f
2:00 9 10 mph 1022.6mb 49f 41f
1:54 6 8 mph 1022.6mb 49f 41f
1:48 8 14 mph 1022.5mb 48f 41f
1:42 8 15 mph 1022.4mb 48f 41f
1:36 8 14 mph 1022.3mb 48f 41f
1:30 10 14 mph 1022.1mb 47f 41f
1:24 10 13 mph 1022.1mb 47f 40f
1:18 10 14 mph 1022.1mb 47f 40f
1:12 9 14 mph 1022.1mb 47f 40f
1:06 10 13 mph 1022.1mb 47f 41f
1:00 10 15 mph 1022.1mb 47f 40f
12:54 10 14 mph 1022.1mb 47f 40f
12:48 10 13 mph 1022.1mb 47f 40f
12:42 10 14 mph 1022.1mb 46f 40f
12:36 11 14 mph 1022mb 46f 40f
12:30 9 11 mph 1021.9mb 46f 40f
12:24 11 15 mph 1021.9mb 45f 40f
12:18 13 16 mph 1021.9mb 45f 40f
12:12 13 15 mph 1021.9mb 45f 39f
12:06 11 14 mph 1021.9mb 45f 39f
12:00 11 15 mph 1021.9mb 45f 39f
11:54 10 14 mph 1021.9mb 44f 40f
11:48 9 11 mph 1021.9mb 44f 39f
11:42 7 9 mph 1021.9mb 44f 39f
11:36 8 11 mph 1021.9mb 44f 39f
11:30 6 9 mph 1021.8mb 44f 39f
11:24 8 10 mph 1021.7mb 44f 39f
11:18 8 9 mph 1021.7mb 44f 39f
11:12 6 8 mph 1021.9mb 44f 39f
11:06 7 9 mph 1021.8mb 44f 38f
11:00 8 10 mph 1021.7mb 44f 38f
10:54 7 9 mph 1021.7mb 44f 38f
10:48 7 9 mph 1021.6mb 44f -
10:30 5 6 mph 1021.5mb 44f 38f
10:24 5 6 mph 1021.4mb 44f 38f
10:18 5 7 mph 1021.3mb 44f 38f
10:12 6 8 mph 1021.2mb 44f 38f
10:06 6 7 mph 1021.1mb 44f 38f
10:00 6 7 mph 1020.9mb 44f 38f
9:54 6 8 mph 1020.8mb 45f 38f
9:48 7 9 mph 1020.7mb 44f 38f
9:30 8 9 mph 1020.4mb 44f 37f
9:24 7 9 mph 1020.4mb 44f 37f
9:18 7 9 mph 1020.3mb 44f 37f
9:12 8 10 mph 1020.2mb 44f 37f
9:06 9 11 mph 1020.1mb 44f 36f
9:00 10 11 mph 1020.1mb 45f 37f
8:54 10 11 mph 1020mb 44f 36f
8:48 9 11 mph 1019.9mb 44f 36f
8:42 9 11 mph 1019.7mb 44f 36f
8:36 9 10 mph 1019.6mb 46f 36f
8:30 9 11 mph 1019.6mb 45f 36f
8:24 8 9 mph 1019.4mb 45f 37f
8:18 7 8 mph 1019.4mb 46f 37f
8:12 6 8 mph 1019.3mb 45f 37f
8:06 6 9 mph 1019.3mb 46f 37f
8:00 8 10 mph 1019.2mb 46f 37f
7:54 8 10 mph 1019.1mb 47f 37f
7:48 8 10 mph 1019mb 48f 37f
7:42 7 8 mph 1018.9mb 48f 37f
7:36 7 10 mph 1018.9mb 49f 37f
7:30 8 9 mph 1018.8mb 50f 37f
7:24 8 10 mph 1018.8mb 51f 37f
7:18 8 10 mph 1018.7mb 50f -
7:12 9 11 mph 1018.6mb 51f 36f
7:06 10 13 mph 1018.6mb 51f 37f
7:00 11 13 mph 1018.5mb 51f 37f
6:54 9 11 mph 1018.4mb 51f 37f
6:48 10 11 mph 1018.3mb 51f 36f
6:42 8 10 mph 1018.3mb 51f 36f
6:36 9 10 mph 1018.2mb 51f 36f
6:30 8 10 mph 1018.1mb 51f 36f
6:24 9 10 mph 1018mb 51f 35f
6:18 8 9 mph 1018mb 51f 35f
6:12 7 8 mph 1018mb 51f 34f
6:06 7 8 mph 1018mb 51f 34f
5:48 5 7 mph 1017.8mb 51f 35f
5:42 6 7 mph 1017.8mb 51f 35f
5:36 7 8 mph 1017.7mb 51f 35f
5:30 8 10 mph 1017.6mb 51f 35f
5:24 9 10 mph 1017.5mb 51f 35f
5:18 7 9 mph 1017.5mb 51f 35f
5:12 7 9 mph 1017.5mb 51f 35f
5:06 6 7 mph 1017.5mb 51f 35f
5:00 6
mph
1017.5mb 51f 36f
4:54 3 6 mph 1017.5mb 51f 36f
4:48 5 8 mph 1017.5mb 51f 36f
4:42 5 7 mph 1017.4mb 51f 36f
4:36 6 7 mph 1017.4mb 51f 36f
4:30 6 8 mph 1017.4mb 51f 36f
4:24 6 8 mph 1017.3mb 51f 35f
4:18 7 8 mph 1017.3mb 51f 36f
4:12 7 8 mph 1017.3mb 51f 35f
4:06 6 9 mph 1017.2mb 51f 35f
4:00 7 8 mph 1017.2mb 51f 35f
3:54 8 10 mph 1017.1mb 50f 35f
3:48 8 10 mph 1017.1mb 50f 35f
3:42 8 10 mph 1017mb 50f 35f
3:36 8 9 mph 1017mb 51f 35f
3:30 9 10 mph 1016.9mb 51f 35f
3:24 7 9 mph 1016.9mb 50f 35f
3:18 8 9 mph 1016.9mb 51f 35f
3:12 8 9 mph 1016.9mb 51f 35f
3:06 7 8 mph 1016.8mb 51f 35f
3:00 7 9 mph 1016.8mb 51f 35f
2:54 7 8 mph 1016.8mb 50f 35f
2:48 8 10 mph 1016.8mb 50f 35f
2:42 9 11 mph 1016.7mb 50f 35f
2:36 9 11 mph 1016.6mb 50f 36f
2:30 9 10 mph 1016.5mb 50f 36f
2:24 8 10 mph 1016.5mb 50f 36f
2:18 7 9 mph 1016.4mb 49f 36f
2:12 7 9 mph 1016.3mb 49f 36f
2:06 7 8 mph 1016.3mb 49f 36f
2:00 7 8 mph 1016.3mb 49f 36f
1:54 7 8 mph 1016.3mb 48f 36f
1:48 7 10 mph 1016.2mb 48f 36f
1:42 7 9 mph 1016.2mb 46f 36f
1:36 8 9 mph 1016.2mb 46f 36f
1:30 7 9 mph 1016.2mb 46f 36f
1:24 8 9 mph 1016.2mb 46f 35f